Time;durP1;ratioP1;P1;durP2;ratioP2;P2;SDS_P1;SDS_P2;PMS_P1;PMS_P2;Temp;Humidity;BMP_temperature;BMP_pressure;BME280_temperature;BME280_humidity;BME280_pressure;Samples;Min_cycle;Max_cycle;Signal;HPM_P1;HPM_P2
2022/04/08 00:00:34;;;;;;;5.72;2.05;;;8.70;97.30;;;;;;5032578;28;20223;-62
2022/04/08 00:03:01;;;;;;;5.95;1.77;;;8.70;97.30;;;;;;5031578;28;20624;-62
2022/04/08 00:05:31;;;;;;;7.00;1.77;;;8.70;97.60;;;;;;5032081;28;20239;-62
2022/04/08 00:07:58;;;;;;;7.32;2.03;;;8.70;97.70;;;;;;5032208;28;20201;-62
2022/04/08 00:10:26;;;;;;;6.07;2.22;;;8.70;97.90;;;;;;5032132;28;20207;-62
2022/04/08 00:12:54;;;;;;;6.68;1.95;;;8.70;98.00;;;;;;5031176;28;20217;-63
2022/04/08 00:15:22;;;;;;;7.85;1.75;;;8.60;98.10;;;;;;5031872;28;20197;-62
2022/04/08 00:17:50;;;;;;;6.38;2.15;;;8.70;98.40;;;;;;5032134;28;20203;-63
2022/04/08 00:20:18;;;;;;;7.82;1.30;;;8.70;98.40;;;;;;5032019;28;20197;-62
2022/04/08 00:22:47;;;;;;;10.80;2.28;;;8.70;98.40;;;;;;5031252;28;20215;-62
2022/04/08 00:25:15;;;;;;;8.85;2.40;;;8.60;98.60;;;;;;5031816;28;20224;-62
2022/04/08 00:27:43;;;;;;;7.85;1.88;;;8.60;98.70;;;;;;5031706;28;20245;-63
2022/04/08 00:30:11;;;;;;;11.13;2.30;;;8.60;98.90;;;;;;5031362;28;20236;-62
2022/04/08 00:32:39;;;;;;;10.93;2.65;;;8.60;99.00;;;;;;5031162;28;20197;-62
2022/04/08 00:35:08;;;;;;;6.82;1.65;;;8.60;99.10;;;;;;5031916;28;20201;-62
2022/04/08 00:37:37;;;;;;;8.80;2.63;;;8.60;99.10;;;;;;5031604;28;20347;-62
2022/04/08 00:40:08;;;;;;;8.70;2.35;;;8.60;99.40;;;;;;5031301;28;20252;-62
2022/04/08 00:42:37;;;;;;;10.60;2.75;;;8.60;99.40;;;;;;5031086;28;20189;-62
2022/04/08 00:45:06;;;;;;;6.68;2.05;;;8.50;99.60;;;;;;5031866;28;20235;-62
2022/04/08 00:47:36;;;;;;;5.40;1.75;;;8.50;99.80;;;;;;5031421;28;20254;-62
2022/04/08 00:50:05;;;;;;;9.50;1.90;;;8.50;99.90;;;;;;5031241;28;20304;-62
2022/04/08 00:52:34;;;;;;;12.27;2.25;;;8.50;99.90;;;;;;5029051;28;20560;-61
2022/04/08 00:55:04;;;;;;;7.55;2.17;;;8.50;99.90;;;;;;5031167;28;20240;-62
2022/04/08 00:57:34;;;;;;;7.07;1.85;;;8.50;99.90;;;;;;5031236;28;20697;-62
2022/04/08 01:00:03;;;;;;;6.57;1.42;;;8.50;99.90;;;;;;5031313;28;20641;-62
2022/04/08 01:02:32;;;;;;;7.35;2.00;;;8.50;99.90;;;;;;5030709;28;20197;-62
2022/04/08 01:05:00;;;;;;;9.23;2.75;;;8.40;99.90;;;;;;5031212;28;20280;-62
2022/04/08 01:07:28;;;;;;;10.68;1.80;;;8.40;99.90;;;;;;5031350;28;20193;-63
2022/04/08 01:09:56;;;;;;;6.97;2.35;;;8.40;99.90;;;;;;5029767;28;20525;-63
2022/04/08 01:12:24;;;;;;;8.88;2.35;;;8.40;99.90;;;;;;5030675;28;20258;-62
2022/04/08 01:14:58;;;;;;;10.82;2.10;;;8.40;99.90;;;;;;5031217;28;20201;-62
2022/04/08 01:17:30;;;;;;;7.28;2.10;;;8.40;99.90;;;;;;5030857;28;20208;-62
2022/04/08 01:19:58;;;;;;;5.45;1.90;;;8.40;99.90;;;;;;5031023;28;20279;-63
2022/04/08 01:22:27;;;;;;;7.75;3.13;;;8.40;99.90;;;;;;5030467;28;20573;-62
2022/04/08 01:25:01;;;;;;;10.93;1.95;;;8.40;99.90;;;;;;5031191;28;20233;-62
2022/04/08 01:27:30;;;;;;;7.57;2.38;;;8.50;99.90;;;;;;5031236;28;20192;-62
2022/04/08 01:29:58;;;;;;;10.25;2.45;;;8.50;99.90;;;;;;5030671;28;20286;-64
2022/04/08 01:32:26;;;;;;;8.93;2.42;;;8.60;99.90;;;;;;5030419;28;20235;-62
2022/04/08 01:34:54;;;;;;;10.85;3.17;;;8.50;99.90;;;;;;5031176;28;20185;-61
2022/04/08 01:37:23;;;;;;;6.05;1.70;;;8.50;99.90;;;;;;5031049;28;20675;-62
2022/04/08 01:39:50;;;;;;;9.60;1.90;;;8.60;99.90;;;;;;5030848;28;20697;-62
2022/04/08 01:42:23;;;;;;;9.60;2.50;;;8.60;99.90;;;;;;5030036;28;20299;-62
2022/04/08 01:44:51;;;;;;;7.22;1.95;;;8.50;99.90;;;;;;5030952;28;20201;-62
2022/04/08 01:47:20;;;;;;;5.25;1.60;;;8.50;99.90;;;;;;5030741;28;20239;-62
2022/04/08 01:49:48;;;;;;;5.95;1.52;;;8.40;99.90;;;;;;5030921;28;20282;-62
2022/04/08 01:52:16;;;;;;;4.53;1.55;;;8.30;99.90;;;;;;5029990;28;20266;-62
2022/04/08 01:54:44;;;;;;;4.25;1.73;;;8.20;99.90;;;;;;5029775;28;20251;-62
2022/04/08 01:57:12;;;;;;;6.82;1.77;;;8.20;99.90;;;;;;5030760;28;20248;-62
2022/04/08 01:59:41;;;;;;;7.80;2.40;;;8.10;99.90;;;;;;5030584;28;20743;-62
2022/04/08 02:02:09;;;;;;;4.80;1.80;;;8.10;99.90;;;;;;5029637;28;20250;-62
2022/04/08 02:04:37;;;;;;;6.50;2.17;;;8.10;99.90;;;;;;5030734;28;20211;-62
2022/04/08 02:07:06;;;;;;;11.90;2.35;;;8.20;99.90;;;;;;5031176;28;20220;-62
2022/04/08 02:09:34;;;;;;;10.82;2.40;;;8.20;99.90;;;;;;5034236;28;20216;-62
2022/04/08 02:12:02;;;;;;;8.43;1.80;;;8.10;99.90;;;;;;5033482;28;20188;-62
2022/04/08 02:14:30;;;;;;;6.32;1.48;;;8.20;99.90;;;;;;5034310;28;20243;-62
2022/04/08 02:16:59;;;;;;;3.25;1.45;;;8.20;99.90;;;;;;5034214;28;20212;-62
2022/04/08 02:19:27;;;;;;;3.47;1.40;;;8.20;99.90;;;;;;5034123;28;20251;-62
2022/04/08 02:21:55;;;;;;;4.15;1.30;;;8.10;99.90;;;;;;5033338;28;20227;-62
2022/04/08 02:24:23;;;;;;;2.65;1.02;;;8.00;99.90;;;;;;5034055;28;20235;-62
2022/04/08 02:26:51;;;;;;;3.97;1.73;;;7.90;99.90;;;;;;5033894;28;20224;-62
2022/04/08 02:29:19;;;;;;;4.45;1.48;;;7.80;99.90;;;;;;5033601;28;20245;-62
2022/04/08 02:31:47;;;;;;;2.95;1.30;;;7.60;99.90;;;;;;5033480;28;20205;-62
2022/04/08 02:34:16;;;;;;;2.67;1.10;;;7.40;99.90;;;;;;5033002;28;20201;-63
2022/04/08 02:36:44;;;;;;;1.00;0.88;;;7.30;99.90;;;;;;5033781;28;20335;-63
2022/04/08 02:39:12;;;;;;;3.53;1.00;;;7.00;99.90;;;;;;5033923;28;20686;-63
2022/04/08 02:41:40;;;;;;;3.35;0.88;;;6.80;99.90;;;;;;5033503;28;20196;-63
2022/04/08 02:44:09;;;;;;;0.85;0.70;;;6.60;99.90;;;;;;5033045;28;20598;-63
2022/04/08 02:46:37;;;;;;;2.28;0.80;;;6.50;99.90;;;;;;5033544;28;20275;-63
2022/04/08 02:49:05;;;;;;;1.38;0.70;;;6.50;99.90;;;;;;5033612;28;20221;-63
2022/04/08 02:51:34;;;;;;;1.73;0.90;;;6.40;99.90;;;;;;5033487;28;20251;-63
2022/04/08 02:54:02;;;;;;;2.30;0.90;;;6.40;99.90;;;;;;5031591;28;20283;-63
2022/04/08 02:56:30;;;;;;;4.32;1.13;;;6.20;99.90;;;;;;5033467;28;20754;-63
2022/04/08 02:59:00;;;;;;;1.88;0.90;;;6.10;99.90;;;;;;5033131;28;20228;-63
2022/04/08 03:01:28;;;;;;;1.60;1.20;;;6.20;99.90;;;;;;5033308;28;20201;-63
2022/04/08 03:03:56;;;;;;;1.30;1.00;;;6.20;99.90;;;;;;5032835;28;20204;-63
2022/04/08 03:06:26;;;;;;;1.33;1.00;;;6.20;99.90;;;;;;5033729;28;20610;-63
2022/04/08 03:08:55;;;;;;;0.90;0.77;;;6.10;99.90;;;;;;5033196;28;20728;-63
2022/04/08 03:11:23;;;;;;;1.25;0.95;;;6.00;99.90;;;;;;5032915;28;20251;-63
2022/04/08 03:13:50;;;;;;;1.23;0.80;;;6.00;99.90;;;;;;5032467;28;20197;-63
2022/04/08 03:16:18;;;;;;;2.38;0.98;;;5.90;99.90;;;;;;5033157;28;20665;-63
2022/04/08 03:18:47;;;;;;;1.08;0.93;;;5.90;99.90;;;;;;5032748;28;20303;-63
2022/04/08 03:21:15;;;;;;;1.02;0.65;;;5.80;99.90;;;;;;5032769;28;20225;-63
2022/04/08 03:23:43;;;;;;;2.05;0.73;;;5.80;99.90;;;;;;5032141;28;20281;-63
2022/04/08 03:26:12;;;;;;;1.98;1.20;;;5.70;99.90;;;;;;5033007;28;20224;-63
2022/04/08 03:28:40;;;;;;;1.70;0.90;;;5.70;99.90;;;;;;5059068;22;20234;-62
2022/04/08 03:31:13;;;;;;;3.30;0.95;;;5.70;99.90;;;;;;5052533;28;20204;-60
2022/04/08 03:33:41;;;;;;;2.15;0.80;;;5.60;99.90;;;;;;5052156;28;20204;-60
2022/04/08 03:36:09;;;;;;;2.40;0.70;;;5.60;99.90;;;;;;5052641;28;20262;-59
2022/04/08 03:38:37;;;;;;;0.80;0.70;;;5.60;99.90;;;;;;5052451;28;20629;-60
2022/04/08 03:41:05;;;;;;;1.65;0.70;;;5.60;99.90;;;;;;5052339;28;20295;-58
2022/04/08 03:43:35;;;;;;;2.70;1.10;;;5.70;99.90;;;;;;5052124;28;20188;-59
2022/04/08 03:46:02;;;;;;;2.15;0.90;;;5.60;99.90;;;;;;5052473;28;20196;-59
2022/04/08 03:48:30;;;;;;;1.70;1.00;;;5.70;99.90;;;;;;5052292;28;20745;-59
2022/04/08 03:50:58;;;;;;;3.55;1.08;;;5.70;99.90;;;;;;5052239;28;20227;-60
2022/04/08 03:53:26;;;;;;;1.58;1.15;;;5.70;99.90;;;;;;5050069;28;20200;-60
2022/04/08 03:55:54;;;;;;;1.88;0.98;;;5.70;99.90;;;;;;5052588;28;20603;-59
2022/04/08 03:58:22;;;;;;;1.00;0.90;;;5.70;99.90;;;;;;5052114;28;20220;-59
2022/04/08 04:00:51;;;;;;;1.10;0.90;;;5.70;99.90;;;;;;5051904;28;20299;-60
2022/04/08 04:03:19;;;;;;;1.40;1.10;;;5.80;99.90;;;;;;5051378;28;20318;-59
2022/04/08 04:05:47;;;;;;;2.60;1.30;;;5.80;99.90;;;;;;5052124;28;20214;-59
2022/04/08 04:08:18;;;;;;;2.55;1.30;;;5.80;99.90;;;;;;5051968;28;20192;-59
2022/04/08 04:10:46;;;;;;;2.55;1.30;;;5.80;99.90;;;;;;5052137;28;20215;-59
2022/04/08 04:13:14;;;;;;;2.50;1.33;;;5.80;99.90;;;;;;5051056;28;20287;-60
2022/04/08 04:15:42;;;;;;;4.22;1.02;;;5.90;99.90;;;;;;5052370;28;20322;-60
2022/04/08 04:18:11;;;;;;;2.33;1.35;;;5.90;99.90;;;;;;5051773;28;20730;-60
2022/04/08 04:20:39;;;;;;;2.53;1.52;;;5.90;99.90;;;;;;5051688;28;20302;-59
2022/04/08 04:23:07;;;;;;;3.05;1.60;;;5.90;99.90;;;;;;5050667;28;20279;-59
2022/04/08 04:25:35;;;;;;;2.55;1.50;;;5.90;99.90;;;;;;5051611;28;20274;-61
2022/04/08 04:28:04;;;;;;;4.07;1.48;;;6.00;99.90;;;;;;5051351;28;20672;-59
2022/04/08 04:30:33;;;;;;;5.20;1.55;;;6.00;99.90;;;;;;5050692;28;20285;-60
2022/04/08 04:33:01;;;;;;;2.00;1.40;;;6.00;99.90;;;;;;5050916;28;20570;-60
2022/04/08 04:35:31;;;;;;;1.30;1.00;;;6.00;99.90;;;;;;5051542;28;20286;-60
2022/04/08 04:37:58;;;;;;;1.67;1.45;;;5.90;99.90;;;;;;5051226;28;20293;-60
2022/04/08 04:40:26;;;;;;;2.47;1.30;;;6.00;99.90;;;;;;5051177;28;20237;-60
2022/04/08 04:42:55;;;;;;;1.60;1.15;;;5.90;99.90;;;;;;5050739;28;20215;-60
2022/04/08 04:45:23;;;;;;;1.45;1.00;;;5.90;99.90;;;;;;5051281;28;20579;-60
2022/04/08 04:47:51;;;;;;;1.40;1.30;;;5.90;99.90;;;;;;5051011;28;20188;-60
2022/04/08 04:50:19;;;;;;;2.45;1.52;;;5.90;99.90;;;;;;5051219;28;20704;-59
2022/04/08 04:52:48;;;;;;;5.28;1.80;;;5.90;99.90;;;;;;5048838;28;20782;-62
2022/04/08 04:55:16;;;;;;;1.27;1.17;;;5.90;99.90;;;;;;5051474;28;20196;-59
2022/04/08 04:57:44;;;;;;;2.55;1.27;;;6.00;99.90;;;;;;5051101;28;20275;-60
2022/04/08 05:00:13;;;;;;;4.07;1.17;;;5.90;99.90;;;;;;5051056;28;20219;-60
2022/04/08 05:02:41;;;;;;;4.40;1.88;;;5.90;99.90;;;;;;5050323;28;20192;-59
2022/04/08 05:05:10;;;;;;;2.95;1.40;;;6.00;99.90;;;;;;5050890;28;20192;-60
2022/04/08 05:07:38;;;;;;;3.17;1.67;;;6.10;99.90;;;;;;5050889;28;20200;-60
2022/04/08 05:10:08;;;;;;;6.75;1.88;;;6.00;99.90;;;;;;5050944;28;20207;-60
2022/04/08 05:12:37;;;;;;;2.35;1.83;;;6.10;99.90;;;;;;5050480;28;20709;-60
2022/04/08 05:15:06;;;;;;;2.75;1.90;;;6.10;99.90;;;;;;5050924;28;20208;-59
2022/04/08 05:17:35;;;;;;;2.55;1.55;;;6.10;99.90;;;;;;5049344;28;20196;-60
2022/04/08 05:20:03;;;;;;;3.67;1.65;;;6.20;99.90;;;;;;5050571;28;20216;-60
2022/04/08 05:22:31;;;;;;;3.40;1.90;;;6.20;99.90;;;;;;5050244;28;20188;-59
2022/04/08 05:24:59;;;;;;;1.40;1.30;;;6.20;99.90;;;;;;5050808;28;20230;-59
2022/04/08 05:27:37;;;;;;;5.35;1.88;;;6.20;99.90;;;;;;5050980;28;20203;-60
2022/04/08 05:30:07;;;;;;;2.65;1.58;;;6.20;99.90;;;;;;5050475;28;20305;-60
2022/04/08 05:32:34;;;;;;;3.70;1.90;;;6.30;99.90;;;;;;5050268;28;20204;-60
2022/04/08 05:35:02;;;;;;;2.45;1.75;;;6.30;99.90;;;;;;5050960;28;20215;-60
2022/04/08 05:37:30;;;;;;;1.75;1.35;;;6.30;99.90;;;;;;5050605;28;20242;-60
2022/04/08 05:39:58;;;;;;;2.75;1.75;;;6.40;99.90;;;;;;5050644;28;20250;-60
2022/04/08 05:42:26;;;;;;;3.00;1.75;;;6.50;99.90;;;;;;5053027;28;20275;-60
2022/04/08 05:44:55;;;;;;;4.63;1.70;;;6.50;99.90;;;;;;5054822;28;20235;-60
2022/04/08 05:47:27;;;;;;;3.25;1.65;;;6.60;99.90;;;;;;5054677;28;20286;-60
2022/04/08 05:50:00;;;;;;;4.05;1.67;;;6.60;99.90;;;;;;5054565;28;20224;-60
2022/04/08 05:52:28;;;;;;;4.50;1.80;;;6.70;99.90;;;;;;5053467;28;20291;-59
2022/04/08 05:54:56;;;;;;;2.05;1.50;;;6.80;99.90;;;;;;5054449;28;20200;-60
2022/04/08 05:57:24;;;;;;;4.35;2.17;;;6.90;99.90;;;;;;5054373;28;20632;-60
2022/04/08 06:00:00;;;;;;;2.47;1.70;;;6.90;99.90;;;;;;5054415;28;20314;-60
2022/04/08 06:02:28;;;;;;;3.90;2.15;;;6.90;99.90;;;;;;5053757;28;20245;-59
2022/04/08 06:04:56;;;;;;;3.65;2.03;;;6.90;99.90;;;;;;5054134;28;20283;-60
2022/04/08 06:07:25;;;;;;;8.70;2.03;;;6.90;99.90;;;;;;5054178;28;20275;-60
2022/04/08 06:09:53;;;;;;;2.53;1.67;;;6.90;99.90;;;;;;5054247;28;20303;-60
2022/04/08 06:12:21;;;;;;;3.85;1.63;;;7.00;99.90;;;;;;5053309;28;20204;-60
2022/04/08 06:14:50;;;;;;;5.03;1.73;;;7.00;99.90;;;;;;5054375;28;20661;-60
2022/04/08 06:17:19;;;;;;;8.07;2.50;;;7.00;99.90;;;;;;5054074;28;20204;-59
2022/04/08 06:19:49;;;;;;;3.80;1.70;;;7.10;99.90;;;;;;5053835;28;20239;-60
2022/04/08 06:22:17;;;;;;;3.67;2.10;;;7.20;99.90;;;;;;5053185;28;20203;-60
2022/04/08 06:24:44;;;;;;;4.93;2.08;;;7.20;99.90;;;;;;5054301;28;20283;-60
2022/04/08 06:27:12;;;;;;;5.15;1.88;;;7.30;99.90;;;;;;5054030;28;20200;-60
2022/04/08 06:29:40;;;;;;;2.38;1.50;;;7.30;99.90;;;;;;5053948;28;20719;-60
2022/04/08 06:32:09;;;;;;;3.83;1.85;;;7.20;99.90;;;;;;5053451;28;20246;-60
2022/04/08 06:34:38;;;;;;;5.18;1.85;;;7.20;99.90;;;;;;5054284;28;20235;-60
2022/04/08 06:37:06;;;;;;;5.63;2.47;;;7.20;99.90;;;;;;5053818;28;20734;-60
2022/04/08 06:39:34;;;;;;;3.65;2.20;;;7.30;99.90;;;;;;5053556;28;20242;-60
2022/04/08 06:42:01;;;;;;;6.63;2.70;;;7.40;99.90;;;;;;5052989;28;20337;-60
2022/04/08 06:44:29;;;;;;;4.30;2.75;;;7.40;99.90;;;;;;5053513;28;20196;-60
2022/04/08 06:46:57;;;;;;;5.50;3.25;;;7.50;99.90;;;;;;5053660;28;20223;-60
2022/04/08 06:49:25;;;;;;;2.80;1.90;;;7.50;99.90;;;;;;5053374;28;20216;-60
2022/04/08 06:51:58;;;;;;;9.10;2.70;;;7.60;99.90;;;;;;5053228;28;20196;-60
2022/04/08 06:54:26;;;;;;;5.80;2.20;;;7.70;99.90;;;;;;5051294;28;20224;-60
2022/04/08 06:56:54;;;;;;;9.20;2.50;;;7.70;99.90;;;;;;5053335;28;20665;-60
2022/04/08 06:59:25;;;;;;;8.90;2.13;;;7.80;99.90;;;;;;5053221;28;20220;-60
2022/04/08 07:01:53;;;;;;;9.70;2.92;;;7.70;99.90;;;;;;5053252;28;20235;-60
2022/04/08 07:04:22;;;;;;;9.43;2.78;;;7.80;99.90;;;;;;5052922;28;20200;-60
2022/04/08 07:06:50;;;;;;;10.07;2.50;;;7.90;99.90;;;;;;5053382;28;20200;-60
2022/04/08 07:09:19;;;;;;;7.00;2.33;;;8.00;99.90;;;;;;5053075;28;20216;-60
2022/04/08 07:11:47;;;;;;;7.68;2.55;;;8.00;99.90;;;;;;5053414;28;20196;-61
2022/04/08 07:14:16;;;;;;;13.93;2.65;;;8.00;99.90;;;;;;5052509;28;20719;-60
2022/04/08 07:16:45;;;;;;;6.45;2.50;;;8.00;99.90;;;;;;5053172;28;20205;-60
2022/04/08 07:19:13;;;;;;;7.43;2.75;;;8.00;99.90;;;;;;5052960;28;20727;-60
2022/04/08 07:21:41;;;;;;;11.90;3.47;;;7.90;99.90;;;;;;5052869;28;20227;-60
2022/04/08 07:24:09;;;;;;;8.77;2.55;;;7.80;99.90;;;;;;5052219;28;20669;-59
2022/04/08 07:26:38;;;;;;;9.65;3.40;;;7.80;99.90;;;;;;5053247;28;20195;-60
2022/04/08 07:29:06;;;;;;;10.68;3.25;;;7.80;99.90;;;;;;5052506;28;20294;-59
2022/04/08 07:31:36;;;;;;;12.88;3.60;;;7.90;99.90;;;;;;5052657;28;20201;-59
2022/04/08 07:34:03;;;;;;;9.75;3.22;;;7.90;99.90;;;;;;5052071;28;20200;-60
2022/04/08 07:36:31;;;;;;;7.75;3.28;;;7.90;99.90;;;;;;5052956;28;20196;-60
2022/04/08 07:38:59;;;;;;;9.52;3.78;;;7.90;99.90;;;;;;5052552;28;20616;-60
2022/04/08 07:41:27;;;;;;;10.18;4.10;;;8.00;99.90;;;;;;5052627;28;20326;-60
2022/04/08 07:43:56;;;;;;;9.02;3.00;;;8.00;99.90;;;;;;5051847;28;20711;-60
2022/04/08 07:46:24;;;;;;;10.13;3.95;;;8.10;99.90;;;;;;5052681;28;20239;-60
2022/04/08 07:48:52;;;;;;;9.68;3.47;;;8.10;99.90;;;;;;5052288;28;20563;-60
2022/04/08 07:51:20;;;;;;;8.40;3.20;;;8.20;99.90;;;;;;5052828;28;20291;-60
2022/04/08 07:53:48;;;;;;;11.65;3.47;;;8.20;99.90;;;;;;5050111;28;20295;-60
2022/04/08 07:56:16;;;;;;;7.95;3.25;;;8.10;99.90;;;;;;5052258;28;20307;-59
2022/04/08 07:58:45;;;;;;;10.00;3.10;;;8.20;99.90;;;;;;5052067;28;20750;-60
2022/04/08 08:01:15;;;;;;;13.23;4.05;;;8.20;99.90;;;;;;5052114;28;20274;-60
2022/04/08 08:03:45;;;;;;;16.88;4.90;;;8.20;99.90;;;;;;5051750;28;20192;-60
2022/04/08 08:06:12;;;;;;;9.50;4.68;;;8.20;99.90;;;;;;5051275;28;20238;-60
2022/04/08 08:08:40;;;;;;;14.30;3.33;;;8.30;99.90;;;;;;5051946;28;20295;-60
2022/04/08 08:11:11;;;;;;;8.55;3.70;;;8.20;99.90;;;;;;5052202;28;20271;-60
2022/04/08 08:13:54;;;;;;;11.95;3.60;;;8.20;99.90;;;;;;5051154;28;20226;-61
2022/04/08 08:16:23;;;;;;;12.50;3.72;;;8.20;99.90;;;;;;5052059;28;20201;-61
2022/04/08 08:18:56;;;;;;;7.70;3.35;;;8.30;99.90;;;;;;5051806;28;20216;-61
2022/04/08 08:21:24;;;;;;;10.45;3.83;;;8.30;99.90;;;;;;5051936;28;20212;-61
2022/04/08 08:23:52;;;;;;;16.13;3.42;;;8.40;99.90;;;;;;5050848;28;20258;-61
2022/04/08 08:26:21;;;;;;;15.82;5.00;;;8.30;99.90;;;;;;5052099;28;20224;-61
2022/04/08 08:28:49;;;;;;;6.15;2.55;;;8.30;99.90;;;;;;5051402;28;20269;-61
2022/04/08 08:31:17;;;;;;;10.90;3.60;;;8.20;99.90;;;;;;5051733;28;20196;-61
2022/04/08 08:33:46;;;;;;;12.23;3.28;;;8.30;99.90;;;;;;5050717;28;20196;-61
2022/04/08 08:36:14;;;;;;;11.45;2.55;;;8.30;99.90;;;;;;5051494;28;20242;-61
2022/04/08 08:38:42;;;;;;;9.50;4.13;;;8.30;99.90;;;;;;5051591;28;20211;-61
2022/04/08 08:41:11;;;;;;;10.73;4.63;;;8.40;99.90;;;;;;5051413;28;20266;-61
2022/04/08 08:43:38;;;;;;;11.60;3.00;;;8.40;99.90;;;;;;5050803;28;20224;-60
2022/04/08 08:46:07;;;;;;;7.25;2.75;;;8.30;99.90;;;;;;5051722;28;20746;-61
2022/04/08 08:48:38;;;;;;;8.52;3.50;;;8.30;99.90;;;;;;5051309;28;20279;-61
2022/04/08 08:51:07;;;;;;;13.63;3.92;;;8.40;99.90;;;;;;5051459;28;20195;-60
2022/04/08 08:53:35;;;;;;;13.63;2.53;;;8.50;99.90;;;;;;5048916;28;20200;-61
2022/04/08 08:56:05;;;;;;;6.78;3.63;;;8.50;99.90;;;;;;5051399;28;20200;-61
2022/04/08 08:58:34;;;;;;;6.70;2.67;;;8.50;99.90;;;;;;5051591;28;20290;-61
2022/04/08 09:01:02;;;;;;;12.32;3.65;;;8.40;99.90;;;;;;5050975;28;20246;-61
2022/04/08 09:03:30;;;;;;;11.25;3.88;;;8.40;99.90;;;;;;5050437;28;20203;-61
2022/04/08 09:06:08;;;;;;;8.95;2.70;;;8.40;99.90;;;;;;5051288;28;20243;-61
2022/04/08 09:08:38;;;;;;;9.18;3.88;;;8.40;99.90;;;;;;5051666;28;20238;-61
2022/04/08 09:11:06;;;;;;;6.18;2.50;;;8.40;99.90;;;;;;5051424;28;20684;-60
2022/04/08 09:13:44;;;;;;;13.40;3.65;;;8.40;99.90;;;;;;5050130;28;20227;-59
2022/04/08 09:16:12;;;;;;;11.00;3.90;;;8.30;99.90;;;;;;5051179;28;20196;-61
2022/04/08 09:18:42;;;;;;;9.77;3.45;;;8.20;99.90;;;;;;5050865;28;20242;-61
2022/04/08 09:21:22;;;;;;;10.15;2.88;;;8.20;99.90;;;;;;5050967;28;20562;-61
2022/04/08 09:23:50;;;;;;;10.70;2.50;;;8.10;99.90;;;;;;5049810;28;20191;-61
2022/04/08 09:26:19;;;;;;;8.82;3.20;;;8.00;99.90;;;;;;5051079;28;20700;-61
2022/04/08 09:28:52;;;;;;;6.15;2.85;;;7.90;99.90;;;;;;5051429;28;20700;-61
2022/04/08 09:31:22;;;;;;;11.32;3.75;;;7.90;99.90;;;;;;5036241;28;20619;-63
2022/04/08 09:33:52;;;;;;;4.65;3.42;;;7.80;99.90;;;;;;5048246;28;20665;-62
2022/04/08 09:36:30;;;;;;;10.05;2.90;;;7.80;99.90;;;;;;5050842;28;20550;-62
2022/04/08 09:38:58;;;;;;;9.98;2.97;;;7.80;99.90;;;;;;5050919;28;20242;-64
2022/04/08 09:41:39;;;;;;;12.88;3.50;;;7.80;99.90;;;;;;5050569;28;20307;-64
2022/04/08 09:44:08;;;;;;;7.97;3.20;;;7.90;99.90;;;;;;5050177;28;20230;-65
2022/04/08 09:46:36;;;;;;;6.13;2.35;;;7.80;99.90;;;;;;5050713;28;20227;-65
2022/04/08 09:49:06;;;;;;;11.52;3.60;;;7.70;99.90;;;;;;5050678;28;20258;-64
2022/04/08 09:51:38;;;;;;;8.40;2.83;;;7.50;99.90;;;;;;5050534;28;20220;-65
2022/04/08 09:54:09;;;;;;;8.65;2.80;;;7.60;99.90;;;;;;5048214;28;20192;-65
2022/04/08 09:56:38;;;;;;;6.97;2.70;;;7.70;99.90;;;;;;5050717;28;20597;-64
2022/04/08 09:59:11;;;;;;;10.32;3.33;;;7.80;99.90;;;;;;5050893;28;20693;-64
2022/04/08 10:01:40;;;;;;;7.38;3.15;;;7.70;99.90;;;;;;5050636;28;20255;-65
2022/04/08 10:04:09;;;;;;;9.35;3.28;;;7.90;99.90;;;;;;5049830;28;20200;-64
2022/04/08 10:06:40;;;;;;;10.68;3.80;;;7.80;99.90;;;;;;5050642;28;20200;-65
2022/04/08 10:09:11;;;;;;;9.60;3.97;;;7.80;99.90;;;;;;5050484;28;20267;-64
2022/04/08 10:11:46;;;;;;;11.70;3.30;;;8.00;99.90;;;;;;5050896;28;20616;-65
2022/04/08 10:14:36;;;;;;;9.00;3.00;;;8.00;99.90;;;;;;5049685;28;20212;-65
2022/04/08 10:17:06;;;;;;;5.75;2.53;;;8.10;99.90;;;;;;5050459;28;20196;-64
2022/04/08 10:19:34;;;;;;;8.52;2.80;;;8.10;99.90;;;;;;5050329;28;20216;-65
2022/04/08 10:22:14;;;;;;;7.90;3.00;;;8.10;99.90;;;;;;5049585;28;20239;-64
2022/04/08 10:24:52;;;;;;;11.98;3.55;;;8.10;99.90;;;;;;5050368;28;20192;-64
2022/04/08 10:27:29;;;;;;;4.15;2.50;;;8.20;99.90;;;;;;5050417;28;20203;-64
2022/04/08 10:29:58;;;;;;;5.90;2.67;;;8.20;99.90;;;;;;5053491;28;20312;-64
2022/04/08 10:32:37;;;;;;;11.27;3.35;;;8.20;99.90;;;;;;5053340;28;20242;-64
2022/04/08 10:35:17;;;;;;;4.70;2.60;;;8.20;99.90;;;;;;5053889;28;20549;-65
2022/04/08 10:37:57;;;;;;;5.32;2.10;;;8.10;99.90;;;;;;5053951;28;20253;-65
2022/04/08 10:40:31;;;;;;;10.38;2.65;;;8.10;99.90;;;;;;5053739;28;20246;-64
2022/04/08 10:43:01;;;;;;;4.30;1.65;;;8.00;99.90;;;;;;5052829;28;20242;-65
2022/04/08 10:45:29;;;;;;;4.78;2.00;;;8.00;99.90;;;;;;5053895;28;20562;-64
2022/04/08 10:48:01;;;;;;;5.15;1.73;;;8.00;99.90;;;;;;5053770;28;20669;-64
2022/04/08 10:50:30;;;;;;;6.43;1.63;;;7.90;99.90;;;;;;5053691;28;20307;-64
2022/04/08 10:53:07;;;;;;;5.97;2.40;;;7.90;99.90;;;;;;5051248;28;20661;-64
2022/04/08 10:55:49;;;;;;;3.47;1.73;;;7.80;99.90;;;;;;5053758;28;20192;-64
2022/04/08 10:58:30;;;;;;;3.63;1.80;;;7.90;99.90;;;;;;5053465;28;20196;-64
2022/04/08 11:00:58;;;;;;;2.75;1.83;;;7.90;99.90;;;;;;5053070;28;20709;-65
2022/04/08 11:03:27;;;;;;;4.55;2.00;;;8.00;99.90;;;;;;5052444;28;20659;-64
2022/04/08 11:05:55;;;;;;;4.45;1.67;;;8.00;99.90;;;;;;5053131;28;20275;-65
2022/04/08 11:08:26;;;;;;;5.47;1.90;;;8.00;99.90;;;;;;5053235;28;20267;-65
2022/04/08 11:10:58;;;;;;;3.10;1.30;;;8.00;99.90;;;;;;5053199;28;20409;-65
2022/04/08 11:13:26;;;;;;;3.22;1.90;;;8.00;99.90;;;;;;5052156;28;20246;-64
2022/04/08 11:15:58;;;;;;;5.05;2.05;;;8.00;99.90;;;;;;5052995;28;20661;-64
2022/04/08 11:18:27;;;;;;;3.80;1.73;;;8.00;99.90;;;;;;5053058;28;20206;-65
2022/04/08 11:20:55;;;;;;;5.63;1.80;;;8.00;99.90;;;;;;5053041;28;20592;-64
2022/04/08 11:23:28;;;;;;;4.07;2.20;;;8.00;99.90;;;;;;5052253;28;20258;-64
2022/04/08 11:25:56;;;;;;;3.05;1.65;;;7.80;99.90;;;;;;5052868;28;20683;-64
2022/04/08 11:28:25;;;;;;;4.35;1.80;;;7.50;99.90;;;;;;5053431;28;20200;-65
2022/04/08 11:30:58;;;;;;;3.00;1.60;;;7.30;99.90;;;;;;5052885;28;20746;-63
2022/04/08 11:33:26;;;;;;;3.35;1.55;;;7.10;99.90;;;;;;5052230;28;20254;-64
2022/04/08 11:35:57;;;;;;;6.20;2.30;;;7.00;99.90;;;;;;5052648;28;20262;-64
2022/04/08 11:38:26;;;;;;;4.97;1.80;;;7.00;99.90;;;;;;5052688;28;20564;-64
2022/04/08 11:40:55;;;;;;;5.43;2.00;;;6.90;99.90;;;;;;5052337;28;20696;-63
2022/04/08 11:43:24;;;;;;;5.47;2.15;;;6.70;99.90;;;;;;5051735;28;20220;-64
2022/04/08 11:45:53;;;;;;;4.38;2.63;;;6.70;99.90;;;;;;5052392;28;20629;-64
2022/04/08 11:48:23;;;;;;;3.70;1.90;;;6.80;99.90;;;;;;5052494;28;20187;-64
2022/04/08 11:50:53;;;;;;;3.95;2.45;;;6.80;99.90;;;;;;5052369;28;20216;-64
2022/04/08 11:53:22;;;;;;;6.88;2.80;;;6.90;99.90;;;;;;5050520;28;20192;-66
2022/04/08 11:55:56;;;;;;;4.32;2.00;;;7.00;99.90;;;;;;5052205;28;20196;-63
2022/04/08 11:58:25;;;;;;;7.43;2.08;;;6.90;99.90;;;;;;5052405;28;20278;-64
2022/04/08 12:00:53;;;;;;;3.50;1.80;;;6.90;99.90;;;;;;5052172;28;20215;-64
2022/04/08 12:03:22;;;;;;;2.55;1.40;;;6.80;99.90;;;;;;5051326;28;20774;-64
2022/04/08 12:05:52;;;;;;;1.70;1.25;;;6.90;99.90;;;;;;5051983;28;20661;-64
2022/04/08 12:08:36;;;;;;;3.00;1.20;;;6.90;99.90;;;;;;5052108;28;20192;-64
2022/04/08 12:11:10;;;;;;;1.25;0.80;;;6.90;99.90;;;;;;5051933;28;20216;-62
2022/04/08 12:13:40;;;;;;;3.22;1.73;;;6.90;99.90;;;;;;5051180;28;20195;-63
2022/04/08 12:16:10;;;;;;;2.25;2.03;;;6.90;99.90;;;;;;5051891;28;20254;-63
2022/04/08 12:18:48;;;;;;;2.53;1.80;;;7.00;99.90;;;;;;5051966;28;20241;-63
2022/04/08 12:21:22;;;;;;;1.17;1.00;;;7.00;99.90;;;;;;5051802;28;20234;-64
2022/04/08 12:23:51;;;;;;;2.53;1.40;;;7.00;99.90;;;;;;5050791;28;20688;-64
2022/04/08 12:26:25;;;;;;;2.45;0.88;;;7.10;99.90;;;;;;5051755;28;20255;-64
2022/04/08 12:29:08;;;;;;;1.98;1.00;;;7.10;99.90;;;;;;5051473;28;20228;-64
2022/04/08 12:31:45;;;;;;;1.17;0.90;;;7.00;99.90;;;;;;5051683;28;20262;-64
2022/04/08 12:34:14;;;;;;;1.80;0.90;;;7.10;99.90;;;;;;5050611;28;20200;-64
2022/04/08 12:36:42;;;;;;;2.10;1.10;;;7.10;99.90;;;;;;5051546;28;20196;-63
2022/04/08 12:39:15;;;;;;;1.27;1.02;;;7.00;99.90;;;;;;5051345;28;20266;-63
2022/04/08 12:41:46;;;;;;;1.85;0.90;;;7.10;99.90;;;;;;5051419;28;20230;-64
2022/04/08 12:44:15;;;;;;;3.00;0.80;;;7.00;99.90;;;;;;5050612;28;20216;-63
2022/04/08 12:46:43;;;;;;;1.38;1.10;;;6.90;99.90;;;;;;5051084;28;20204;-64
2022/04/08 12:49:12;;;;;;;1.35;0.70;;;6.90;99.90;;;;;;5051173;28;20216;-65
2022/04/08 12:51:40;;;;;;;0.98;0.68;;;6.90;99.90;;;;;;5050821;28;20234;-62
2022/04/08 12:54:08;;;;;;;1.85;0.80;;;6.90;99.90;;;;;;5049216;28;20191;-63
2022/04/08 12:56:35;;;;;;;0.77;0.60;;;6.80;99.90;;;;;;5050970;28;20283;-64
2022/04/08 12:59:05;;;;;;;0.90;0.60;;;6.90;99.90;;;;;;5037099;28;20685;-64
2022/04/08 13:01:34;;;;;;;0.70;0.60;;;7.00;99.90;;;;;;5025576;28;20279;-64
2022/04/08 13:04:02;;;;;;;0.80;0.68;;;7.10;99.90;;;;;;5030137;28;20788;-64
2022/04/08 13:06:31;;;;;;;2.35;0.77;;;7.20;99.90;;;;;;5031191;28;20246;-64